sensor_id;sensor_type;location;lat;lon;timestamp;P1;durP1;ratioP1;P2;durP2;ratioP2
38779;SDS011;29273;49.962;9.768;2024-01-16T00:01:17;2.67;;;1.02;;
38779;SDS011;29273;49.962;9.768;2024-01-16T00:03:43;1.30;;;0.80;;
38779;SDS011;29273;49.962;9.768;2024-01-16T00:06:09;2.22;;;0.98;;
38779;SDS011;29273;49.962;9.768;2024-01-16T00:08:35;2.10;;;1.17;;
38779;SDS011;29273;49.962;9.768;2024-01-16T00:11:01;1.77;;;1.05;;
38779;SDS011;29273;49.962;9.768;2024-01-16T00:13:28;1.85;;;1.13;;
38779;SDS011;29273;49.962;9.768;2024-01-16T00:15:53;3.58;;;1.33;;
38779;SDS011;29273;49.962;9.768;2024-01-16T00:18:19;2.80;;;1.10;;
38779;SDS011;29273;49.962;9.768;2024-01-16T00:20:44;4.32;;;1.25;;
38779;SDS011;29273;49.962;9.768;2024-01-16T00:23:09;1.73;;;1.15;;
38779;SDS011;29273;49.962;9.768;2024-01-16T00:25:35;2.45;;;1.25;;
38779;SDS011;29273;49.962;9.768;2024-01-16T00:28:01;2.67;;;1.30;;
38779;SDS011;29273;49.962;9.768;2024-01-16T00:30:27;2.67;;;1.13;;
38779;SDS011;29273;49.962;9.768;2024-01-16T00:32:52;2.08;;;1.08;;
38779;SDS011;29273;49.962;9.768;2024-01-16T00:35:18;2.78;;;1.10;;
38779;SDS011;29273;49.962;9.768;2024-01-16T00:37:44;3.13;;;1.05;;
38779;SDS011;29273;49.962;9.768;2024-01-16T00:40:09;3.40;;;1.27;;
38779;SDS011;29273;49.962;9.768;2024-01-16T00:42:35;2.00;;;1.00;;
38779;SDS011;29273;49.962;9.768;2024-01-16T00:45:01;1.52;;;1.10;;
38779;SDS011;29273;49.962;9.768;2024-01-16T00:47:26;2.35;;;1.30;;
38779;SDS011;29273;49.962;9.768;2024-01-16T00:49:52;2.35;;;1.27;;
38779;SDS011;29273;49.962;9.768;2024-01-16T00:52:18;3.10;;;1.00;;
38779;SDS011;29273;49.962;9.768;2024-01-16T00:54:44;1.75;;;1.13;;
38779;SDS011;29273;49.962;9.768;2024-01-16T00:57:10;1.80;;;1.20;;
38779;SDS011;29273;49.962;9.768;2024-01-16T00:59:36;3.55;;;0.98;;
38779;SDS011;29273;49.962;9.768;2024-01-16T01:02:02;2.20;;;0.93;;
38779;SDS011;29273;49.962;9.768;2024-01-16T01:04:29;2.05;;;0.90;;
38779;SDS011;29273;49.962;9.768;2024-01-16T01:06:54;3.17;;;1.33;;
38779;SDS011;29273;49.962;9.768;2024-01-16T01:09:20;1.48;;;1.23;;
38779;SDS011;29273;49.962;9.768;2024-01-16T01:11:46;2.83;;;1.20;;
38779;SDS011;29273;49.962;9.768;2024-01-16T01:14:11;3.03;;;1.20;;
38779;SDS011;29273;49.962;9.768;2024-01-16T01:16:37;2.35;;;1.10;;
38779;SDS011;29273;49.962;9.768;2024-01-16T01:19:02;1.77;;;1.17;;
38779;SDS011;29273;49.962;9.768;2024-01-16T01:21:28;3.15;;;1.70;;
38779;SDS011;29273;49.962;9.768;2024-01-16T01:23:53;2.88;;;1.40;;
38779;SDS011;29273;49.962;9.768;2024-01-16T01:26:19;2.88;;;1.65;;
38779;SDS011;29273;49.962;9.768;2024-01-16T01:28:44;1.83;;;1.25;;
38779;SDS011;29273;49.962;9.768;2024-01-16T01:31:10;2.05;;;1.35;;
38779;SDS011;29273;49.962;9.768;2024-01-16T01:33:36;2.40;;;1.20;;
38779;SDS011;29273;49.962;9.768;2024-01-16T01:36:02;1.83;;;1.10;;
38779;SDS011;29273;49.962;9.768;2024-01-16T01:38:27;2.47;;;1.00;;
38779;SDS011;29273;49.962;9.768;2024-01-16T01:40:53;2.85;;;1.27;;
38779;SDS011;29273;49.962;9.768;2024-01-16T01:43:22;4.07;;;1.20;;
38779;SDS011;29273;49.962;9.768;2024-01-16T01:48:47;3.42;;;1.58;;
38779;SDS011;29273;49.962;9.768;2024-01-16T01:51:14;3.28;;;1.40;;
38779;SDS011;29273;49.962;9.768;2024-01-16T01:53:43;1.95;;;1.10;;
38779;SDS011;29273;49.962;9.768;2024-01-16T01:56:19;1.60;;;1.08;;
38779;SDS011;29273;49.962;9.768;2024-01-16T01:58:46;1.70;;;1.38;;
38779;SDS011;29273;49.962;9.768;2024-01-16T02:01:13;2.13;;;1.27;;
38779;SDS011;29273;49.962;9.768;2024-01-16T02:03:42;2.03;;;1.25;;
38779;SDS011;29273;49.962;9.768;2024-01-16T02:06:09;1.92;;;1.40;;
38779;SDS011;29273;49.962;9.768;2024-01-16T02:08:36;1.85;;;1.20;;
38779;SDS011;29273;49.962;9.768;2024-01-16T02:11:02;2.58;;;1.33;;
38779;SDS011;29273;49.962;9.768;2024-01-16T02:13:27;2.90;;;1.23;;
38779;SDS011;29273;49.962;9.768;2024-01-16T02:15:53;2.55;;;1.35;;
38779;SDS011;29273;49.962;9.768;2024-01-16T02:18:19;1.50;;;1.10;;
38779;SDS011;29273;49.962;9.768;2024-01-16T02:20:45;1.95;;;1.10;;
38779;SDS011;29273;49.962;9.768;2024-01-16T02:23:12;3.30;;;1.63;;
38779;SDS011;29273;49.962;9.768;2024-01-16T02:25:39;3.40;;;1.40;;
38779;SDS011;29273;49.962;9.768;2024-01-16T02:28:06;3.05;;;1.30;;
38779;SDS011;29273;49.962;9.768;2024-01-16T02:30:32;2.95;;;1.52;;
38779;SDS011;29273;49.962;9.768;2024-01-16T02:32:57;2.38;;;1.17;;
38779;SDS011;29273;49.962;9.768;2024-01-16T02:35:23;2.63;;;1.35;;
38779;SDS011;29273;49.962;9.768;2024-01-16T02:37:48;3.60;;;1.60;;
38779;SDS011;29273;49.962;9.768;2024-01-16T02:40:14;3.08;;;1.42;;
38779;SDS011;29273;49.962;9.768;2024-01-16T02:42:40;2.38;;;1.48;;
38779;SDS011;29273;49.962;9.768;2024-01-16T02:45:06;2.78;;;1.40;;
38779;SDS011;29273;49.962;9.768;2024-01-16T02:47:32;5.22;;;2.10;;
38779;SDS011;29273;49.962;9.768;2024-01-16T02:49:58;3.47;;;1.60;;
38779;SDS011;29273;49.962;9.768;2024-01-16T02:52:24;2.15;;;1.48;;
38779;SDS011;29273;49.962;9.768;2024-01-16T02:54:50;3.50;;;1.70;;
38779;SDS011;29273;49.962;9.768;2024-01-16T02:57:16;2.40;;;1.55;;
38779;SDS011;29273;49.962;9.768;2024-01-16T02:59:44;2.60;;;1.50;;
38779;SDS011;29273;49.962;9.768;2024-01-16T03:02:09;3.30;;;1.60;;
38779;SDS011;29273;49.962;9.768;2024-01-16T03:04:36;3.40;;;1.65;;
38779;SDS011;29273;49.962;9.768;2024-01-16T03:07:02;2.55;;;1.67;;
38779;SDS011;29273;49.962;9.768;2024-01-16T03:09:27;4.13;;;1.88;;
38779;SDS011;29273;49.962;9.768;2024-01-16T03:11:53;2.58;;;1.95;;
38779;SDS011;29273;49.962;9.768;2024-01-16T03:14:18;3.15;;;1.92;;
38779;SDS011;29273;49.962;9.768;2024-01-16T03:16:44;3.75;;;1.80;;
38779;SDS011;29273;49.962;9.768;2024-01-16T03:19:09;3.97;;;2.20;;
38779;SDS011;29273;49.962;9.768;2024-01-16T03:21:37;3.97;;;2.05;;
38779;SDS011;29273;49.962;9.768;2024-01-16T03:24:03;3.55;;;1.70;;
38779;SDS011;29273;49.962;9.768;2024-01-16T03:26:28;3.15;;;1.63;;
38779;SDS011;29273;49.962;9.768;2024-01-16T03:28:54;2.42;;;2.22;;
38779;SDS011;29273;49.962;9.768;2024-01-16T03:31:19;2.60;;;2.00;;
38779;SDS011;29273;49.962;9.768;2024-01-16T03:33:46;3.28;;;2.08;;
38779;SDS011;29273;49.962;9.768;2024-01-16T03:36:12;3.25;;;1.92;;
38779;SDS011;29273;49.962;9.768;2024-01-16T03:38:38;3.58;;;2.20;;
38779;SDS011;29273;49.962;9.768;2024-01-16T03:41:04;2.90;;;1.98;;
38779;SDS011;29273;49.962;9.768;2024-01-16T03:43:32;3.22;;;2.08;;
38779;SDS011;29273;49.962;9.768;2024-01-16T03:45:59;2.78;;;2.13;;
38779;SDS011;29273;49.962;9.768;2024-01-16T03:48:24;4.13;;;2.03;;
38779;SDS011;29273;49.962;9.768;2024-01-16T03:50:50;2.38;;;1.70;;
38779;SDS011;29273;49.962;9.768;2024-01-16T03:53:15;3.25;;;1.83;;
38779;SDS011;29273;49.962;9.768;2024-01-16T03:55:41;2.60;;;1.77;;
38779;SDS011;29273;49.962;9.768;2024-01-16T03:58:06;3.05;;;1.80;;
38779;SDS011;29273;49.962;9.768;2024-01-16T04:00:32;3.03;;;1.88;;
38779;SDS011;29273;49.962;9.768;2024-01-16T04:02:58;2.97;;;1.80;;
38779;SDS011;29273;49.962;9.768;2024-01-16T04:05:23;2.53;;;1.58;;
38779;SDS011;29273;49.962;9.768;2024-01-16T04:07:49;3.42;;;1.83;;
38779;SDS011;29273;49.962;9.768;2024-01-16T04:10:14;4.13;;;1.92;;
38779;SDS011;29273;49.962;9.768;2024-01-16T04:12:40;2.03;;;1.80;;
38779;SDS011;29273;49.962;9.768;2024-01-16T04:15:05;2.13;;;1.63;;
38779;SDS011;29273;49.962;9.768;2024-01-16T04:17:31;2.47;;;1.63;;
38779;SDS011;29273;49.962;9.768;2024-01-16T04:19:57;3.65;;;1.80;;
38779;SDS011;29273;49.962;9.768;2024-01-16T04:22:22;2.05;;;1.67;;
38779;SDS011;29273;49.962;9.768;2024-01-16T04:24:47;1.83;;;1.45;;
38779;SDS011;29273;49.962;9.768;2024-01-16T04:27:13;2.47;;;1.80;;
38779;SDS011;29273;49.962;9.768;2024-01-16T04:29:38;1.50;;;1.40;;
38779;SDS011;29273;49.962;9.768;2024-01-16T04:32:04;3.78;;;1.80;;
38779;SDS011;29273;49.962;9.768;2024-01-16T04:34:30;2.63;;;1.60;;
38779;SDS011;29273;49.962;9.768;2024-01-16T04:36:55;2.38;;;1.70;;
38779;SDS011;29273;49.962;9.768;2024-01-16T04:39:21;3.22;;;1.80;;
38779;SDS011;29273;49.962;9.768;2024-01-16T04:41:49;3.80;;;1.80;;
38779;SDS011;29273;49.962;9.768;2024-01-16T04:44:15;3.40;;;1.80;;
38779;SDS011;29273;49.962;9.768;2024-01-16T04:46:40;2.45;;;1.75;;
38779;SDS011;29273;49.962;9.768;2024-01-16T04:49:06;3.45;;;1.65;;
38779;SDS011;29273;49.962;9.768;2024-01-16T04:51:31;2.35;;;1.65;;
38779;SDS011;29273;49.962;9.768;2024-01-16T04:53:57;3.53;;;2.00;;
38779;SDS011;29273;49.962;9.768;2024-01-16T04:56:22;2.17;;;1.75;;
38779;SDS011;29273;49.962;9.768;2024-01-16T04:58:48;3.33;;;1.80;;
38779;SDS011;29273;49.962;9.768;2024-01-16T05:01:13;1.92;;;1.70;;
38779;SDS011;29273;49.962;9.768;2024-01-16T05:03:39;4.05;;;1.98;;
38779;SDS011;29273;49.962;9.768;2024-01-16T05:06:04;2.78;;;1.90;;
38779;SDS011;29273;49.962;9.768;2024-01-16T05:08:30;2.70;;;1.42;;
38779;SDS011;29273;49.962;9.768;2024-01-16T05:10:56;2.65;;;1.80;;
38779;SDS011;29273;49.962;9.768;2024-01-16T05:13:22;2.28;;;1.88;;
38779;SDS011;29273;49.962;9.768;2024-01-16T05:15:47;2.65;;;1.60;;
38779;SDS011;29273;49.962;9.768;2024-01-16T05:18:13;6.43;;;2.30;;
38779;SDS011;29273;49.962;9.768;2024-01-16T05:20:39;3.10;;;1.85;;
38779;SDS011;29273;49.962;9.768;2024-01-16T05:23:05;2.70;;;1.88;;
38779;SDS011;29273;49.962;9.768;2024-01-16T05:25:31;3.22;;;2.00;;
38779;SDS011;29273;49.962;9.768;2024-01-16T05:27:56;2.88;;;1.75;;
38779;SDS011;29273;49.962;9.768;2024-01-16T05:30:22;2.40;;;1.80;;
38779;SDS011;29273;49.962;9.768;2024-01-16T05:32:47;4.13;;;1.77;;
38779;SDS011;29273;49.962;9.768;2024-01-16T05:35:13;3.10;;;2.10;;
38779;SDS011;29273;49.962;9.768;2024-01-16T05:37:38;2.08;;;1.65;;
38779;SDS011;29273;49.962;9.768;2024-01-16T05:40:04;3.00;;;1.90;;
38779;SDS011;29273;49.962;9.768;2024-01-16T05:42:32;3.55;;;1.95;;
38779;SDS011;29273;49.962;9.768;2024-01-16T05:44:58;3.13;;;2.38;;
38779;SDS011;29273;49.962;9.768;2024-01-16T05:47:23;3.63;;;2.20;;
38779;SDS011;29273;49.962;9.768;2024-01-16T05:49:52;3.03;;;2.00;;
38779;SDS011;29273;49.962;9.768;2024-01-16T05:52:18;2.47;;;1.83;;
38779;SDS011;29273;49.962;9.768;2024-01-16T05:54:44;2.88;;;1.70;;
38779;SDS011;29273;49.962;9.768;2024-01-16T05:57:09;4.75;;;2.33;;
38779;SDS011;29273;49.962;9.768;2024-01-16T05:59:35;3.88;;;1.80;;
38779;SDS011;29273;49.962;9.768;2024-01-16T06:02:00;2.45;;;1.63;;
38779;SDS011;29273;49.962;9.768;2024-01-16T06:04:26;3.55;;;1.70;;
38779;SDS011;29273;49.962;9.768;2024-01-16T06:06:51;2.45;;;1.83;;
38779;SDS011;29273;49.962;9.768;2024-01-16T06:09:17;3.35;;;1.60;;
38779;SDS011;29273;49.962;9.768;2024-01-16T06:11:43;2.70;;;1.67;;
38779;SDS011;29273;49.962;9.768;2024-01-16T06:14:09;3.05;;;1.80;;
38779;SDS011;29273;49.962;9.768;2024-01-16T06:16:35;1.98;;;1.60;;
38779;SDS011;29273;49.962;9.768;2024-01-16T06:19:01;2.05;;;1.80;;
38779;SDS011;29273;49.962;9.768;2024-01-16T06:21:27;3.22;;;1.70;;
38779;SDS011;29273;49.962;9.768;2024-01-16T06:23:52;4.28;;;1.90;;
38779;SDS011;29273;49.962;9.768;2024-01-16T06:26:18;3.60;;;2.05;;
38779;SDS011;29273;49.962;9.768;2024-01-16T06:28:43;4.45;;;2.65;;
38779;SDS011;29273;49.962;9.768;2024-01-16T06:31:09;4.53;;;2.00;;
38779;SDS011;29273;49.962;9.768;2024-01-16T06:33:35;3.10;;;1.85;;
38779;SDS011;29273;49.962;9.768;2024-01-16T06:36:04;3.70;;;1.90;;
38779;SDS011;29273;49.962;9.768;2024-01-16T06:38:30;3.15;;;1.83;;
38779;SDS011;29273;49.962;9.768;2024-01-16T06:40:56;6.38;;;2.75;;
38779;SDS011;29273;49.962;9.768;2024-01-16T06:43:22;3.35;;;2.00;;
38779;SDS011;29273;49.962;9.768;2024-01-16T06:45:47;3.40;;;2.00;;
38779;SDS011;29273;49.962;9.768;2024-01-16T06:48:13;4.00;;;1.80;;
38779;SDS011;29273;49.962;9.768;2024-01-16T06:50:38;3.67;;;2.08;;
38779;SDS011;29273;49.962;9.768;2024-01-16T06:53:04;5.65;;;2.33;;
38779;SDS011;29273;49.962;9.768;2024-01-16T06:55:29;3.72;;;2.00;;
38779;SDS011;29273;49.962;9.768;2024-01-16T06:57:55;3.20;;;1.80;;
38779;SDS011;29273;49.962;9.768;2024-01-16T07:00:20;3.70;;;1.98;;
38779;SDS011;29273;49.962;9.768;2024-01-16T07:02:48;2.58;;;1.88;;
38779;SDS011;29273;49.962;9.768;2024-01-16T07:05:13;2.35;;;1.60;;
38779;SDS011;29273;49.962;9.768;2024-01-16T07:07:39;3.38;;;1.80;;
38779;SDS011;29273;49.962;9.768;2024-01-16T07:10:05;2.80;;;1.63;;
38779;SDS011;29273;49.962;9.768;2024-01-16T07:12:33;2.30;;;1.60;;
38779;SDS011;29273;49.962;9.768;2024-01-16T07:14:59;2.35;;;1.50;;
38779;SDS011;29273;49.962;9.768;2024-01-16T07:17:25;3.13;;;1.67;;
38779;SDS011;29273;49.962;9.768;2024-01-16T07:19:50;2.42;;;1.80;;
38779;SDS011;29273;49.962;9.768;2024-01-16T07:22:16;2.55;;;1.80;;
38779;SDS011;29273;49.962;9.768;2024-01-16T07:24:42;3.38;;;1.50;;
38779;SDS011;29273;49.962;9.768;2024-01-16T07:27:07;3.17;;;1.98;;
38779;SDS011;29273;49.962;9.768;2024-01-16T07:29:33;4.20;;;1.98;;
38779;SDS011;29273;49.962;9.768;2024-01-16T07:31:59;2.72;;;1.90;;
38779;SDS011;29273;49.962;9.768;2024-01-16T07:34:24;2.40;;;1.85;;
38779;SDS011;29273;49.962;9.768;2024-01-16T07:36:50;2.83;;;1.55;;
38779;SDS011;29273;49.962;9.768;2024-01-16T07:39:16;4.10;;;2.33;;
38779;SDS011;29273;49.962;9.768;2024-01-16T07:41:42;6.30;;;2.05;;
38779;SDS011;29273;49.962;9.768;2024-01-16T07:44:08;3.22;;;1.83;;
38779;SDS011;29273;49.962;9.768;2024-01-16T07:46:33;3.17;;;2.20;;
38779;SDS011;29273;49.962;9.768;2024-01-16T07:48:59;3.03;;;1.85;;
38779;SDS011;29273;49.962;9.768;2024-01-16T07:51:24;3.17;;;1.85;;
38779;SDS011;29273;49.962;9.768;2024-01-16T07:54:04;3.08;;;2.17;;
38779;SDS011;29273;49.962;9.768;2024-01-16T07:56:32;3.15;;;2.13;;
38779;SDS011;29273;49.962;9.768;2024-01-16T07:58:58;3.13;;;2.15;;
38779;SDS011;29273;49.962;9.768;2024-01-16T08:01:24;2.53;;;2.10;;
38779;SDS011;29273;49.962;9.768;2024-01-16T08:03:49;3.85;;;2.35;;
38779;SDS011;29273;49.962;9.768;2024-01-16T08:06:15;3.13;;;1.98;;
38779;SDS011;29273;49.962;9.768;2024-01-16T08:08:41;4.32;;;2.38;;
38779;SDS011;29273;49.962;9.768;2024-01-16T08:11:06;3.22;;;2.00;;
38779;SDS011;29273;49.962;9.768;2024-01-16T08:13:32;3.22;;;2.03;;
38779;SDS011;29273;49.962;9.768;2024-01-16T08:15:58;2.45;;;1.77;;
38779;SDS011;29273;49.962;9.768;2024-01-16T08:18:23;3.00;;;2.22;;
38779;SDS011;29273;49.962;9.768;2024-01-16T08:20:49;5.93;;;2.13;;
38779;SDS011;29273;49.962;9.768;2024-01-16T08:23:15;2.78;;;2.05;;
38779;SDS011;29273;49.962;9.768;2024-01-16T08:25:40;3.33;;;2.53;;
38779;SDS011;29273;49.962;9.768;2024-01-16T08:28:06;4.25;;;2.70;;
38779;SDS011;29273;49.962;9.768;2024-01-16T08:30:31;3.72;;;2.63;;
38779;SDS011;29273;49.962;9.768;2024-01-16T08:32:57;3.58;;;2.53;;
38779;SDS011;29273;49.962;9.768;2024-01-16T08:35:22;4.10;;;2.55;;
38779;SDS011;29273;49.962;9.768;2024-01-16T08:37:48;2.92;;;2.22;;
38779;SDS011;29273;49.962;9.768;2024-01-16T08:40:13;3.65;;;2.65;;
38779;SDS011;29273;49.962;9.768;2024-01-16T08:42:39;2.75;;;2.13;;
38779;SDS011;29273;49.962;9.768;2024-01-16T08:45:04;3.55;;;2.40;;
38779;SDS011;29273;49.962;9.768;2024-01-16T08:47:30;3.33;;;2.30;;
38779;SDS011;29273;49.962;9.768;2024-01-16T08:49:56;3.83;;;2.20;;
38779;SDS011;29273;49.962;9.768;2024-01-16T08:52:22;3.78;;;2.45;;
38779;SDS011;29273;49.962;9.768;2024-01-16T08:54:47;3.50;;;2.25;;
38779;SDS011;29273;49.962;9.768;2024-01-16T08:57:13;3.13;;;1.90;;
38779;SDS011;29273;49.962;9.768;2024-01-16T08:59:40;2.65;;;1.73;;
38779;SDS011;29273;49.962;9.768;2024-01-16T09:02:08;3.65;;;1.98;;
38779;SDS011;29273;49.962;9.768;2024-01-16T09:04:33;2.85;;;2.33;;
38779;SDS011;29273;49.962;9.768;2024-01-16T09:06:59;2.72;;;1.75;;
38779;SDS011;29273;49.962;9.768;2024-01-16T09:09:25;2.75;;;2.03;;
38779;SDS011;29273;49.962;9.768;2024-01-16T09:11:51;3.13;;;2.17;;
38779;SDS011;29273;49.962;9.768;2024-01-16T09:14:16;2.97;;;2.03;;
38779;SDS011;29273;49.962;9.768;2024-01-16T09:16:42;4.32;;;2.40;;
38779;SDS011;29273;49.962;9.768;2024-01-16T09:19:07;3.65;;;2.42;;
38779;SDS011;29273;49.962;9.768;2024-01-16T09:21:34;4.25;;;3.00;;
38779;SDS011;29273;49.962;9.768;2024-01-16T09:24:00;4.90;;;2.92;;
38779;SDS011;29273;49.962;9.768;2024-01-16T09:26:25;4.25;;;2.97;;
38779;SDS011;29273;49.962;9.768;2024-01-16T09:28:51;4.53;;;2.80;;
38779;SDS011;29273;49.962;9.768;2024-01-16T09:31:16;5.13;;;3.15;;
38779;SDS011;29273;49.962;9.768;2024-01-16T09:33:42;4.15;;;2.70;;
38779;SDS011;29273;49.962;9.768;2024-01-16T09:36:08;3.65;;;2.70;;
38779;SDS011;29273;49.962;9.768;2024-01-16T09:38:34;3.38;;;2.40;;
38779;SDS011;29273;49.962;9.768;2024-01-16T09:41:00;4.22;;;2.80;;
38779;SDS011;29273;49.962;9.768;2024-01-16T09:43:28;4.40;;;3.13;;
38779;SDS011;29273;49.962;9.768;2024-01-16T09:45:55;3.42;;;2.65;;
38779;SDS011;29273;49.962;9.768;2024-01-16T09:48:21;4.05;;;2.70;;
38779;SDS011;29273;49.962;9.768;2024-01-16T09:50:47;3.45;;;2.53;;
38779;SDS011;29273;49.962;9.768;2024-01-16T09:53:12;3.25;;;2.33;;
38779;SDS011;29273;49.962;9.768;2024-01-16T09:55:38;4.30;;;2.72;;
38779;SDS011;29273;49.962;9.768;2024-01-16T09:58:03;4.90;;;2.72;;
38779;SDS011;29273;49.962;9.768;2024-01-16T10:00:31;4.85;;;2.75;;
38779;SDS011;29273;49.962;9.768;2024-01-16T10:02:58;6.13;;;3.17;;
38779;SDS011;29273;49.962;9.768;2024-01-16T10:05:24;4.38;;;3.17;;
38779;SDS011;29273;49.962;9.768;2024-01-16T10:07:51;6.97;;;3.88;;
38779;SDS011;29273;49.962;9.768;2024-01-16T10:10:17;6.05;;;3.95;;
38779;SDS011;29273;49.962;9.768;2024-01-16T10:12:43;4.80;;;3.40;;
38779;SDS011;29273;49.962;9.768;2024-01-16T10:15:09;5.90;;;3.83;;
38779;SDS011;29273;49.962;9.768;2024-01-16T10:17:39;5.10;;;3.40;;
38779;SDS011;29273;49.962;9.768;2024-01-16T10:20:06;4.30;;;3.10;;
38779;SDS011;29273;49.962;9.768;2024-01-16T10:22:32;3.70;;;2.55;;
38779;SDS011;29273;49.962;9.768;2024-01-16T10:25:08;4.88;;;2.90;;
38779;SDS011;29273;49.962;9.768;2024-01-16T10:27:37;4.50;;;2.70;;
38779;SDS011;29273;49.962;9.768;2024-01-16T10:30:04;3.03;;;2.13;;
38779;SDS011;29273;49.962;9.768;2024-01-16T10:32:31;4.25;;;2.28;;
38779;SDS011;29273;49.962;9.768;2024-01-16T10:35:02;3.60;;;2.30;;
38779;SDS011;29273;49.962;9.768;2024-01-16T10:37:29;2.83;;;2.20;;
38779;SDS011;29273;49.962;9.768;2024-01-16T10:40:22;3.10;;;1.98;;
38779;SDS011;29273;49.962;9.768;2024-01-16T10:45:24;3.75;;;2.10;;
38779;SDS011;29273;49.962;9.768;2024-01-16T10:47:54;2.40;;;1.90;;
38779;SDS011;29273;49.962;9.768;2024-01-16T10:50:26;3.08;;;1.90;;
38779;SDS011;29273;49.962;9.768;2024-01-16T10:52:52;2.33;;;2.00;;
38779;SDS011;29273;49.962;9.768;2024-01-16T10:55:21;3.60;;;2.25;;
38779;SDS011;29273;49.962;9.768;2024-01-16T10:57:51;3.08;;;2.00;;
38779;SDS011;29273;49.962;9.768;2024-01-16T11:00:18;3.58;;;2.25;;
38779;SDS011;29273;49.962;9.768;2024-01-16T11:02:49;2.92;;;2.42;;
38779;SDS011;29273;49.962;9.768;2024-01-16T11:05:27;4.32;;;2.30;;
38779;SDS011;29273;49.962;9.768;2024-01-16T11:07:55;2.40;;;1.83;;
38779;SDS011;29273;49.962;9.768;2024-01-16T11:10:21;4.30;;;2.03;;
38779;SDS011;29273;49.962;9.768;2024-01-16T11:12:47;3.22;;;2.20;;
38779;SDS011;29273;49.962;9.768;2024-01-16T11:15:14;3.63;;;2.05;;
38779;SDS011;29273;49.962;9.768;2024-01-16T11:17:43;2.40;;;1.77;;
38779;SDS011;29273;49.962;9.768;2024-01-16T11:20:09;3.20;;;1.90;;
38779;SDS011;29273;49.962;9.768;2024-01-16T11:22:39;4.28;;;2.13;;
38779;SDS011;29273;49.962;9.768;2024-01-16T11:25:08;3.38;;;1.60;;
38779;SDS011;29273;49.962;9.768;2024-01-16T11:27:35;2.55;;;1.95;;
38779;SDS011;29273;49.962;9.768;2024-01-16T11:30:04;4.20;;;1.77;;
38779;SDS011;29273;49.962;9.768;2024-01-16T11:35:03;3.08;;;1.83;;
38779;SDS011;29273;49.962;9.768;2024-01-16T11:37:30;2.45;;;1.60;;
38779;SDS011;29273;49.962;9.768;2024-01-16T11:42:42;3.88;;;1.67;;
38779;SDS011;29273;49.962;9.768;2024-01-16T11:45:21;4.10;;;1.90;;
38779;SDS011;29273;49.962;9.768;2024-01-16T11:48:15;3.53;;;2.00;;
38779;SDS011;29273;49.962;9.768;2024-01-16T11:50:41;2.45;;;1.60;;
38779;SDS011;29273;49.962;9.768;2024-01-16T11:53:08;3.00;;;1.50;;
38779;SDS011;29273;49.962;9.768;2024-01-16T11:55:48;2.90;;;1.50;;
38779;SDS011;29273;49.962;9.768;2024-01-16T12:01:18;2.95;;;1.27;;
38779;SDS011;29273;49.962;9.768;2024-01-16T12:04:20;5.22;;;1.30;;
38779;SDS011;29273;49.962;9.768;2024-01-16T12:06:40;3.90;;;1.60;;
38779;SDS011;29273;49.962;9.768;2024-01-16T12:09:12;3.08;;;1.50;;
38779;SDS011;29273;49.962;9.768;2024-01-16T12:11:41;3.28;;;1.50;;
38779;SDS011;29273;49.962;9.768;2024-01-16T12:14:10;2.03;;;1.30;;
38779;SDS011;29273;49.962;9.768;2024-01-16T12:16:37;3.53;;;1.48;;
38779;SDS011;29273;49.962;9.768;2024-01-16T12:19:09;2.35;;;1.15;;
38779;SDS011;29273;49.962;9.768;2024-01-16T12:21:43;3.80;;;1.10;;
38779;SDS011;29273;49.962;9.768;2024-01-16T12:24:12;2.53;;;1.20;;
38779;SDS011;29273;49.962;9.768;2024-01-16T12:26:38;2.35;;;1.23;;
38779;SDS011;29273;49.962;9.768;2024-01-16T12:29:04;2.00;;;1.17;;
38779;SDS011;29273;49.962;9.768;2024-01-16T12:31:31;3.33;;;1.20;;
38779;SDS011;29273;49.962;9.768;2024-01-16T12:34:06;2.50;;;1.20;;
38779;SDS011;29273;49.962;9.768;2024-01-16T12:36:34;3.47;;;1.77;;
38779;SDS011;29273;49.962;9.768;2024-01-16T12:39:01;4.00;;;1.20;;
38779;SDS011;29273;49.962;9.768;2024-01-16T12:41:27;2.50;;;1.40;;
38779;SDS011;29273;49.962;9.768;2024-01-16T12:43:58;2.50;;;1.55;;
38779;SDS011;29273;49.962;9.768;2024-01-16T12:46:23;2.03;;;1.23;;
38779;SDS011;29273;49.962;9.768;2024-01-16T12:48:49;2.22;;;1.13;;
38779;SDS011;29273;49.962;9.768;2024-01-16T12:51:20;2.72;;;1.38;;
38779;SDS011;29273;49.962;9.768;2024-01-16T12:53:48;2.72;;;1.45;;
38779;SDS011;29273;49.962;9.768;2024-01-16T12:56:17;1.83;;;1.30;;
38779;SDS011;29273;49.962;9.768;2024-01-16T12:58:43;4.13;;;1.50;;
38779;SDS011;29273;49.962;9.768;2024-01-16T13:01:25;4.35;;;1.63;;
38779;SDS011;29273;49.962;9.768;2024-01-16T13:03:52;4.97;;;1.55;;
38779;SDS011;29273;49.962;9.768;2024-01-16T13:06:18;2.58;;;1.20;;
38779;SDS011;29273;49.962;9.768;2024-01-16T13:08:45;2.70;;;1.65;;
38779;SDS011;29273;49.962;9.768;2024-01-16T13:11:11;2.17;;;1.33;;
38779;SDS011;29273;49.962;9.768;2024-01-16T13:13:37;3.22;;;1.38;;
38779;SDS011;29273;49.962;9.768;2024-01-16T13:16:03;1.85;;;1.10;;
38779;SDS011;29273;49.962;9.768;2024-01-16T13:18:33;1.60;;;1.20;;
38779;SDS011;29273;49.962;9.768;2024-01-16T13:20:59;2.13;;;1.25;;
38779;SDS011;29273;49.962;9.768;2024-01-16T13:23:25;2.67;;;1.35;;
38779;SDS011;29273;49.962;9.768;2024-01-16T13:25:52;2.33;;;1.20;;
38779;SDS011;29273;49.962;9.768;2024-01-16T13:28:19;2.38;;;1.30;;
38779;SDS011;29273;49.962;9.768;2024-01-16T13:30:46;8.30;;;1.27;;
38779;SDS011;29273;49.962;9.768;2024-01-16T13:33:13;3.20;;;1.50;;
38779;SDS011;29273;49.962;9.768;2024-01-16T13:35:40;1.55;;;1.13;;
38779;SDS011;29273;49.962;9.768;2024-01-16T13:38:06;3.05;;;1.40;;
38779;SDS011;29273;49.962;9.768;2024-01-16T13:40:33;2.95;;;1.17;;
38779;SDS011;29273;49.962;9.768;2024-01-16T13:43:00;4.40;;;1.38;;
38779;SDS011;29273;49.962;9.768;2024-01-16T13:45:29;3.15;;;1.13;;
38779;SDS011;29273;49.962;9.768;2024-01-16T13:47:55;1.35;;;1.10;;
38779;SDS011;29273;49.962;9.768;2024-01-16T13:50:21;2.38;;;1.02;;
38779;SDS011;29273;49.962;9.768;2024-01-16T13:52:47;1.00;;;0.80;;
38779;SDS011;29273;49.962;9.768;2024-01-16T13:55:13;2.03;;;1.10;;
38779;SDS011;29273;49.962;9.768;2024-01-16T13:57:38;3.72;;;1.10;;
38779;SDS011;29273;49.962;9.768;2024-01-16T14:00:05;1.13;;;0.95;;
38779;SDS011;29273;49.962;9.768;2024-01-16T14:02:39;2.47;;;1.20;;
38779;SDS011;29273;49.962;9.768;2024-01-16T14:05:07;1.73;;;1.00;;
38779;SDS011;29273;49.962;9.768;2024-01-16T14:07:39;11.05;;;1.30;;
38779;SDS011;29273;49.962;9.768;2024-01-16T14:10:07;5.22;;;1.00;;
38779;SDS011;29273;49.962;9.768;2024-01-16T14:12:40;3.78;;;1.50;;
38779;SDS011;29273;49.962;9.768;2024-01-16T14:15:13;1.92;;;1.13;;
38779;SDS011;29273;49.962;9.768;2024-01-16T14:17:52;2.17;;;1.17;;
38779;SDS011;29273;49.962;9.768;2024-01-16T14:20:19;2.58;;;1.27;;
38779;SDS011;29273;49.962;9.768;2024-01-16T14:22:48;2.58;;;1.17;;
38779;SDS011;29273;49.962;9.768;2024-01-16T14:25:14;2.10;;;1.10;;
38779;SDS011;29273;49.962;9.768;2024-01-16T14:27:44;3.10;;;1.42;;
38779;SDS011;29273;49.962;9.768;2024-01-16T14:30:11;1.75;;;1.10;;
38779;SDS011;29273;49.962;9.768;2024-01-16T14:32:45;2.30;;;1.38;;
38779;SDS011;29273;49.962;9.768;2024-01-16T14:35:11;2.25;;;1.20;;
38779;SDS011;29273;49.962;9.768;2024-01-16T14:37:38;1.73;;;1.00;;
38779;SDS011;29273;49.962;9.768;2024-01-16T14:40:07;1.15;;;0.88;;
38779;SDS011;29273;49.962;9.768;2024-01-16T14:42:40;2.92;;;0.93;;
38779;SDS011;29273;49.962;9.768;2024-01-16T14:45:07;2.22;;;1.10;;
38779;SDS011;29273;49.962;9.768;2024-01-16T14:47:34;2.55;;;1.58;;
38779;SDS011;29273;49.962;9.768;2024-01-16T14:49:59;2.97;;;1.30;;
38779;SDS011;29273;49.962;9.768;2024-01-16T14:52:25;2.25;;;1.30;;
38779;SDS011;29273;49.962;9.768;2024-01-16T14:54:51;2.60;;;1.52;;
38779;SDS011;29273;49.962;9.768;2024-01-16T14:57:17;2.38;;;1.60;;
38779;SDS011;29273;49.962;9.768;2024-01-16T14:59:43;4.00;;;1.67;;